createdAt,value
2019-02-15T00:01:20.671Z,16.62
2019-02-15T00:03:50.987Z,18.20
2019-02-15T00:06:21.296Z,15.30
2019-02-15T00:08:51.661Z,15.03
2019-02-15T00:11:21.857Z,14.73
2019-02-15T00:13:52.128Z,14.87
2019-02-15T00:16:22.336Z,12.28
2019-02-15T00:19:06.956Z,15.18
2019-02-15T00:21:41.981Z,12.93
2019-02-15T00:24:12.168Z,12.23
2019-02-15T00:26:42.337Z,15.70
2019-02-15T00:29:13.453Z,11.40
2019-02-15T00:31:43.695Z,13.35
2019-02-15T00:34:14.341Z,11.30
2019-02-15T00:36:44.609Z,11.18
2019-02-15T00:39:14.772Z,13.45
2019-02-15T00:41:45.045Z,10.43
2019-02-15T00:44:15.215Z,15.32
2019-02-15T00:47:19.765Z,11.10
2019-02-15T00:50:11.033Z,12.53
2019-02-15T00:52:49.575Z,13.35
2019-02-15T00:55:41.450Z,13.25
2019-02-15T00:58:35.929Z,13.28
2019-02-15T01:01:34.353Z,11.10
2019-02-15T01:04:13.043Z,11.45
2019-02-15T01:06:50.824Z,16.35
2019-02-15T01:09:25.764Z,13.68
2019-02-15T01:12:01.827Z,12.10
2019-02-15T01:14:33.220Z,11.78
2019-02-15T01:17:04.370Z,18.20
2019-02-15T01:19:34.534Z,12.30
2019-02-15T01:22:04.650Z,14.18
2019-02-15T01:24:34.889Z,13.58
2019-02-15T01:27:26.756Z,10.58
2019-02-15T01:30:06.421Z,11.95
2019-02-15T01:32:51.168Z,11.03
2019-02-15T01:35:39.057Z,14.43
2019-02-15T01:38:23.765Z,12.80
2019-02-15T01:41:11.748Z,12.37
2019-02-15T01:43:58.773Z,14.75
2019-02-15T01:46:45.639Z,11.10
2019-02-15T01:49:15.817Z,11.80
2019-02-15T01:51:45.927Z,14.60
2019-02-15T01:54:16.065Z,11.20
2019-02-15T01:56:46.185Z,12.30
2019-02-15T01:59:16.337Z,13.20
2019-02-15T02:01:46.651Z,11.22
2019-02-15T02:04:16.873Z,10.72
2019-02-15T02:06:47.121Z,12.40
2019-02-15T02:09:18.057Z,8.63
2019-02-15T02:11:48.348Z,12.55
2019-02-15T02:14:18.568Z,8.88
2019-02-15T02:16:48.756Z,9.63
2019-02-15T02:19:18.890Z,11.57
2019-02-15T02:21:49.064Z,9.53
2019-02-15T02:24:19.230Z,12.45
2019-02-15T02:26:49.395Z,12.13
2019-02-15T02:29:19.560Z,10.43
2019-02-15T02:31:49.722Z,11.73
2019-02-15T02:34:19.947Z,9.43
2019-02-15T02:36:52.973Z,8.93
2019-02-15T02:39:23.676Z,14.03
2019-02-15T02:41:53.845Z,9.95
2019-02-15T02:44:24.012Z,12.47
2019-02-15T02:46:54.130Z,8.25
2019-02-15T02:49:24.438Z,9.28
2019-02-15T02:51:54.733Z,8.83
2019-02-15T02:54:24.843Z,11.48
2019-02-15T02:56:54.984Z,11.73
2019-02-15T02:59:25.461Z,10.38
2019-02-15T03:01:55.563Z,9.15
2019-02-15T03:04:28.090Z,10.50
2019-02-15T03:06:58.244Z,10.38
2019-02-15T03:09:29.497Z,9.45
2019-02-15T03:11:59.635Z,7.42
2019-02-15T03:14:29.778Z,9.80
2019-02-15T03:16:59.942Z,9.53
2019-02-15T03:19:30.106Z,6.45
2019-02-15T03:22:00.224Z,6.05
2019-02-15T03:24:30.345Z,8.83
2019-02-15T03:27:00.445Z,8.15
2019-02-15T03:29:30.587Z,8.65
2019-02-15T03:32:00.710Z,9.03
2019-02-15T03:34:30.827Z,7.92
2019-02-15T03:37:24.090Z,9.00
2019-02-15T03:40:00.535Z,10.82
2019-02-15T03:42:30.650Z,10.03
2019-02-15T03:45:00.870Z,7.42
2019-02-15T03:47:32.145Z,6.08
2019-02-15T03:50:04.698Z,9.90
2019-02-15T03:52:34.171Z,9.55
2019-02-15T03:55:04.685Z,7.40
2019-02-15T03:57:35.533Z,6.10
2019-02-15T04:00:07.092Z,10.58
2019-02-15T04:02:37.283Z,7.17
2019-02-15T04:05:07.502Z,9.50
2019-02-15T04:07:37.666Z,7.78
2019-02-15T04:10:08.941Z,7.65
2019-02-15T04:12:41.732Z,9.43
2019-02-15T04:15:11.849Z,8.23
2019-02-15T04:17:41.972Z,10.20
2019-02-15T04:20:12.117Z,6.55
2019-02-15T04:22:43.655Z,8.18
2019-02-15T04:25:25.195Z,6.50
2019-02-15T04:27:55.391Z,9.95
2019-02-15T04:30:25.535Z,5.12
2019-02-15T04:32:55.650Z,8.88
2019-02-15T04:35:25.825Z,8.90
2019-02-15T04:37:55.978Z,7.75
2019-02-15T04:40:29.829Z,8.55
2019-02-15T04:42:59.973Z,6.95
2019-02-15T04:45:30.073Z,6.35
2019-02-15T04:48:00.214Z,9.58
2019-02-15T04:50:30.393Z,9.03
2019-02-15T04:53:03.052Z,6.20
2019-02-15T04:55:32.364Z,8.10
2019-02-15T04:58:20.863Z,7.62
2019-02-15T05:00:51.021Z,7.47
2019-02-15T05:03:21.208Z,5.78
2019-02-15T05:05:51.377Z,7.62
2019-02-15T05:08:29.268Z,5.83
2019-02-15T05:11:02.937Z,9.73
2019-02-15T05:13:33.425Z,9.68
2019-02-15T05:16:03.648Z,7.65
2019-02-15T05:18:34.587Z,8.20
2019-02-15T05:21:06.961Z,7.42
2019-02-15T05:23:37.919Z,8.90
2019-02-15T05:26:10.573Z,6.87
2019-02-15T05:28:41.203Z,11.33
2019-02-15T05:31:11.410Z,5.53
2019-02-15T05:33:42.115Z,7.58
2019-02-15T05:36:18.622Z,6.83
2019-02-15T05:38:49.244Z,9.50
2019-02-15T05:41:19.441Z,8.58
2019-02-15T05:43:49.616Z,5.17
2019-02-15T05:46:20.017Z,7.65
2019-02-15T05:48:50.271Z,9.08
2019-02-15T05:51:20.371Z,7.33
2019-02-15T05:53:50.822Z,7.12
2019-02-15T05:56:21.132Z,8.50
2019-02-15T05:58:51.313Z,13.48
2019-02-15T06:01:22.962Z,11.15
2019-02-15T06:03:53.187Z,7.35
2019-02-15T06:06:23.567Z,12.90
2019-02-15T06:08:53.751Z,10.32
2019-02-15T06:11:23.994Z,6.40
2019-02-15T06:13:54.143Z,8.50
2019-02-15T06:16:24.340Z,10.38
2019-02-15T06:18:54.455Z,8.45
2019-02-15T06:21:24.682Z,7.97
2019-02-15T06:23:54.901Z,9.63
2019-02-15T06:26:25.160Z,11.05
2019-02-15T06:28:56.787Z,10.93
2019-02-15T06:31:26.936Z,12.75
2019-02-15T06:33:57.076Z,9.98
2019-02-15T06:36:31.157Z,8.65
2019-02-15T06:39:01.425Z,10.80
2019-02-15T06:41:33.021Z,9.48
2019-02-15T06:44:04.216Z,8.23
2019-02-15T06:46:34.326Z,8.00
2019-02-15T06:49:04.550Z,10.50
2019-02-15T06:51:34.791Z,6.83
2019-02-15T06:54:04.972Z,13.75
2019-02-15T06:56:35.130Z,8.08
2019-02-15T06:59:25.234Z,10.85
2019-02-15T07:02:11.562Z,10.93
2019-02-15T07:04:57.962Z,11.15
2019-02-15T07:07:28.260Z,8.45
2019-02-15T07:09:58.386Z,8.30
2019-02-15T07:12:30.010Z,13.08
2019-02-15T07:15:00.272Z,11.30
2019-02-15T07:17:30.398Z,8.25
2019-02-15T07:20:00.518Z,6.15
2019-02-15T07:22:30.695Z,9.10
2019-02-15T07:25:00.867Z,11.15
2019-02-15T07:27:33.354Z,14.10
2019-02-15T07:30:05.266Z,9.55
2019-02-15T07:32:35.569Z,10.60
2019-02-15T07:35:05.790Z,10.58
2019-02-15T07:37:36.034Z,10.32
2019-02-15T07:40:08.059Z,9.20
2019-02-15T07:42:38.460Z,8.60
2019-02-15T07:45:09.472Z,8.68
2019-02-15T07:47:39.978Z,8.85
2019-02-15T07:50:14.092Z,9.05
2019-02-15T07:52:44.246Z,9.68
2019-02-15T07:55:14.366Z,9.33
2019-02-15T07:57:44.540Z,11.43
2019-02-15T08:00:15.222Z,9.98
2019-02-15T08:02:46.182Z,10.50
2019-02-15T08:05:16.385Z,8.30
2019-02-15T08:07:46.543Z,9.93
2019-02-15T08:10:17.126Z,11.22
2019-02-15T08:12:47.296Z,6.70
2019-02-15T08:15:17.475Z,6.58
2019-02-15T08:17:47.935Z,8.28
2019-02-15T08:20:18.554Z,11.65
2019-02-15T08:22:48.705Z,6.42
2019-02-15T08:25:20.327Z,9.13
2019-02-15T08:27:50.579Z,7.42
2019-02-15T08:30:22.141Z,9.65
2019-02-15T08:32:53.167Z,6.60
2019-02-15T08:35:23.398Z,7.33
2019-02-15T08:37:53.505Z,5.95
2019-02-15T08:40:23.663Z,4.30
2019-02-15T08:42:56.002Z,6.50
2019-02-15T08:45:27.535Z,6.22
2019-02-15T08:47:57.671Z,6.12
2019-02-15T08:50:27.839Z,5.85
2019-02-15T08:52:58.062Z,4.53
2019-02-15T08:55:28.213Z,4.00
2019-02-15T08:57:58.356Z,5.20
2019-02-15T09:00:28.601Z,4.15
2019-02-15T09:02:58.747Z,5.67
2019-02-15T09:05:28.991Z,6.75
2019-02-15T09:07:59.575Z,5.22
2019-02-15T09:10:30.762Z,8.45
2019-02-15T09:13:02.733Z,4.58
2019-02-15T09:15:32.999Z,5.30
2019-02-15T09:18:03.125Z,5.42
2019-02-15T09:20:33.293Z,2.55
2019-02-15T09:23:03.443Z,3.20
2019-02-15T09:25:33.541Z,4.33
2019-02-15T09:28:21.530Z,3.50
2019-02-15T09:30:53.493Z,5.20
2019-02-15T09:33:31.600Z,4.40
2019-02-15T09:36:02.286Z,3.70
2019-02-15T09:38:32.430Z,2.17
2019-02-15T09:41:02.599Z,5.33
2019-02-15T09:43:33.893Z,3.15
2019-02-15T09:46:04.013Z,4.00
2019-02-15T09:48:35.157Z,3.27
2019-02-15T09:51:05.442Z,2.92
2019-02-15T09:53:35.621Z,3.77
2019-02-15T09:56:05.787Z,5.22
2019-02-15T09:58:35.975Z,3.83
2019-02-15T10:01:10.169Z,4.03
2019-02-15T10:03:40.439Z,2.40
2019-02-15T10:06:10.598Z,5.62
2019-02-15T10:08:40.717Z,4.97
2019-02-15T10:11:10.795Z,4.65
2019-02-15T10:13:40.979Z,3.70
2019-02-15T10:16:11.119Z,4.00
2019-02-15T10:18:41.315Z,5.42
2019-02-15T10:21:11.438Z,2.20
2019-02-15T10:23:41.557Z,3.77
2019-02-15T10:26:11.656Z,1.92
2019-02-15T10:28:45.015Z,1.90
2019-02-15T10:31:15.171Z,2.35
2019-02-15T10:33:45.323Z,2.30
2019-02-15T10:36:15.432Z,1.82
2019-02-15T10:38:45.792Z,1.95
2019-02-15T10:41:15.972Z,0.95
2019-02-15T10:43:48.262Z,2.62
2019-02-15T10:46:18.417Z,1.55
2019-02-15T10:48:48.598Z,2.65
2019-02-15T10:51:18.772Z,1.05
2019-02-15T10:53:48.888Z,5.42
2019-02-15T10:56:19.009Z,3.17
2019-02-15T10:58:49.217Z,1.47
2019-02-15T11:01:19.486Z,2.55
2019-02-15T11:03:50.327Z,1.47
2019-02-15T11:06:20.510Z,1.60
2019-02-15T11:08:50.653Z,1.12
2019-02-15T11:11:21.625Z,1.90
2019-02-15T11:13:51.980Z,0.78
2019-02-15T11:16:22.177Z,2.80
2019-02-15T11:18:52.316Z,1.32
2019-02-15T11:21:22.543Z,1.45
2019-02-15T11:23:52.772Z,1.42
2019-02-15T11:26:24.679Z,2.02
2019-02-15T11:28:55.424Z,0.82
2019-02-15T11:31:26.694Z,0.53
2019-02-15T11:33:56.978Z,1.00
2019-02-15T11:36:27.139Z,2.70
2019-02-15T11:38:58.086Z,2.67
2019-02-15T11:41:28.283Z,1.82
2019-02-15T11:43:59.501Z,2.75
2019-02-15T11:46:29.653Z,0.65
2019-02-15T11:48:59.824Z,0.98
2019-02-15T11:51:31.544Z,1.75
2019-02-15T11:54:01.675Z,2.83
2019-02-15T11:56:33.423Z,4.97
2019-02-15T11:59:03.809Z,1.47
2019-02-15T12:01:33.981Z,0.82
2019-02-15T12:04:05.022Z,1.80
2019-02-15T12:06:35.759Z,2.22
2019-02-15T12:09:06.905Z,3.50
2019-02-15T12:11:37.872Z,1.20
2019-02-15T12:14:08.024Z,0.30
2019-02-15T12:16:38.723Z,1.22
2019-02-15T12:19:08.937Z,3.98
2019-02-15T12:21:40.656Z,1.12
2019-02-15T12:24:10.743Z,0.72
2019-02-15T12:26:40.895Z,0.37
2019-02-15T12:29:11.066Z,0.40
2019-02-15T12:31:41.233Z,0.57
2019-02-15T12:34:11.404Z,0.20
2019-02-15T12:36:41.559Z,2.37
2019-02-15T12:39:14.127Z,0.23
2019-02-15T12:41:43.581Z,1.52
2019-02-15T12:44:13.743Z,0.57
2019-02-15T12:46:44.826Z,0.47
2019-02-15T12:49:15.392Z,0.35
2019-02-15T12:51:46.685Z,0.90
2019-02-15T12:54:16.853Z,2.60
2019-02-15T12:56:46.975Z,0.78
2019-02-15T12:59:18.632Z,1.17
2019-02-15T13:01:48.790Z,2.05
2019-02-15T13:04:43.934Z,2.52
2019-02-15T13:07:16.173Z,0.78
2019-02-15T13:09:46.481Z,0.50
2019-02-15T13:12:17.035Z,0.20
2019-02-15T13:14:47.237Z,0.33
2019-02-15T13:17:24.468Z,1.95
2019-02-15T13:19:49.951Z,4.25
2019-02-15T13:22:20.317Z,0.25
2019-02-15T13:24:51.783Z,0.85
2019-02-15T13:27:21.954Z,0.82
2019-02-15T13:29:54.545Z,2.40
2019-02-15T13:32:24.667Z,1.95
2019-02-15T13:34:56.099Z,0.78
2019-02-15T13:37:26.543Z,0.47
2019-02-15T13:39:56.740Z,1.17
2019-02-15T13:42:26.912Z,0.33
2019-02-15T13:44:57.203Z,0.60
2019-02-15T13:47:34.159Z,0.35
2019-02-15T13:49:59.225Z,3.22
2019-02-15T13:52:31.562Z,0.80
2019-02-15T13:55:02.900Z,0.72
2019-02-15T13:57:33.134Z,0.75
2019-02-15T14:00:03.422Z,0.30
2019-02-15T14:02:36.036Z,1.55
2019-02-15T14:05:06.657Z,1.22
2019-02-15T14:07:37.104Z,0.30
2019-02-15T14:10:08.789Z,0.20
2019-02-15T14:12:40.469Z,1.42
2019-02-15T14:15:10.690Z,2.67
2019-02-15T14:17:45.602Z,0.30
2019-02-15T14:20:14.543Z,1.55
2019-02-15T14:22:44.757Z,0.15
2019-02-15T14:25:15.015Z,0.55
2019-02-15T14:27:45.360Z,0.40
2019-02-15T14:30:15.610Z,2.22
2019-02-15T14:32:46.491Z,0.50
2019-02-15T14:35:17.335Z,1.25
2019-02-15T14:37:47.692Z,0.45
2019-02-15T14:40:17.865Z,0.82
2019-02-15T14:42:49.316Z,0.30
2019-02-15T14:45:19.908Z,1.72
2019-02-15T14:47:54.880Z,1.00
2019-02-15T14:50:22.041Z,0.10
2019-02-15T14:52:52.354Z,0.65
2019-02-15T14:55:32.453Z,0.30
2019-02-15T14:58:02.886Z,0.40
2019-02-15T15:00:33.214Z,1.42
2019-02-15T15:03:03.544Z,2.40
2019-02-15T15:05:34.817Z,1.37
2019-02-15T15:08:05.093Z,0.20
2019-02-15T15:10:35.364Z,0.70
2019-02-15T15:13:05.580Z,0.40
2019-02-15T15:15:36.183Z,0.72
2019-02-15T15:18:13.007Z,1.95
2019-02-15T15:20:49.057Z,1.00
2019-02-15T15:23:22.878Z,1.95
2019-02-15T15:25:53.228Z,0.30
2019-02-15T15:28:23.456Z,2.10
2019-02-15T15:30:54.648Z,2.52
2019-02-15T15:33:27.219Z,0.62
2019-02-15T15:35:59.061Z,1.37
2019-02-15T15:38:31.599Z,1.35
2019-02-15T15:41:01.738Z,0.30
2019-02-15T15:43:34.881Z,1.17
2019-02-15T15:46:05.216Z,4.03
2019-02-15T15:48:35.790Z,2.40
2019-02-15T15:51:05.997Z,1.20
2019-02-15T15:53:36.359Z,4.00
2019-02-15T15:56:07.549Z,0.55
2019-02-15T15:58:41.287Z,2.92
2019-02-15T16:01:11.667Z,2.00
2019-02-15T16:03:41.882Z,2.15
2019-02-15T16:06:13.262Z,1.72
2019-02-15T16:08:43.907Z,5.30
2019-02-15T16:11:14.239Z,3.25
2019-02-15T16:13:44.473Z,1.55
2019-02-15T16:16:15.570Z,4.67
2019-02-15T16:18:45.734Z,2.87
2019-02-15T16:21:16.551Z,3.72
2019-02-15T16:23:46.819Z,1.95
2019-02-15T16:26:17.415Z,6.75
2019-02-15T16:28:47.549Z,1.25
2019-02-15T16:31:17.865Z,1.87
2019-02-15T16:33:53.256Z,3.35
2019-02-15T16:36:23.417Z,2.90
2019-02-15T16:38:54.536Z,2.98
2019-02-15T16:41:24.773Z,4.72
2019-02-15T16:43:56.367Z,7.22
2019-02-15T16:46:27.077Z,4.83
2019-02-15T16:49:00.106Z,1.20
2019-02-15T16:51:33.282Z,2.20
2019-02-15T16:54:03.679Z,6.22
2019-02-15T16:56:34.081Z,3.30
2019-02-15T16:59:04.289Z,4.83
2019-02-15T17:01:37.105Z,5.42
2019-02-15T17:04:07.286Z,3.22
2019-02-15T17:06:37.531Z,2.77
2019-02-15T17:09:21.343Z,3.47
2019-02-15T17:11:51.602Z,5.17
2019-02-15T17:14:21.967Z,1.42
2019-02-15T17:16:52.208Z,2.87
2019-02-15T17:19:22.530Z,3.70
2019-02-15T17:21:52.752Z,5.28
2019-02-15T17:24:23.730Z,4.53
2019-02-15T17:26:53.848Z,4.80
2019-02-15T17:29:31.195Z,4.50
2019-02-15T17:32:02.572Z,7.97
2019-02-15T17:34:36.427Z,4.05
2019-02-15T17:37:06.719Z,3.52
2019-02-15T17:39:37.062Z,6.97
2019-02-15T17:42:07.324Z,5.78
2019-02-15T17:44:37.756Z,2.40
2019-02-15T17:47:08.029Z,1.80
2019-02-15T17:49:38.329Z,2.67
2019-02-15T17:52:17.500Z,6.47
2019-02-15T17:54:47.775Z,3.72
2019-02-15T17:57:19.216Z,3.45
2019-02-15T17:59:49.462Z,3.60
2019-02-15T18:02:19.765Z,3.08
2019-02-15T18:04:54.082Z,3.10
2019-02-15T18:07:30.138Z,4.90
2019-02-15T18:10:00.416Z,5.00
2019-02-15T18:12:30.846Z,2.92
2019-02-15T18:15:01.937Z,3.12
2019-02-15T18:17:32.523Z,4.10
2019-02-15T18:20:05.642Z,5.00
2019-02-15T18:22:38.391Z,4.53
2019-02-15T18:25:08.616Z,3.85
2019-02-15T18:27:38.798Z,5.20
2019-02-15T18:30:12.887Z,5.08
2019-02-15T18:32:43.244Z,4.72
2019-02-15T18:35:19.370Z,10.93
2019-02-15T18:37:49.588Z,7.67
2019-02-15T18:40:19.815Z,7.28
2019-02-15T18:42:50.136Z,9.48
2019-02-15T18:45:20.552Z,8.40
2019-02-15T18:47:50.972Z,10.38
2019-02-15T18:50:21.195Z,7.72
2019-02-15T18:52:59.175Z,6.70
2019-02-15T18:55:29.334Z,6.75
2019-02-15T18:57:59.643Z,7.62
2019-02-15T19:00:30.806Z,9.98
2019-02-15T19:03:01.050Z,8.80
2019-02-15T19:05:33.639Z,9.03
2019-02-15T19:08:03.852Z,9.15
2019-02-15T19:10:35.292Z,6.58
2019-02-15T19:13:05.431Z,8.00
2019-02-15T19:15:35.603Z,9.88
2019-02-15T19:18:06.366Z,9.65
2019-02-15T19:20:36.974Z,13.88
2019-02-15T19:23:11.387Z,10.95
2019-02-15T19:25:41.560Z,13.32
2019-02-15T19:28:14.113Z,9.65
2019-02-15T19:30:44.261Z,8.75
2019-02-15T19:33:14.537Z,5.75
2019-02-15T19:35:46.853Z,8.90
2019-02-15T19:38:16.972Z,7.47
2019-02-15T19:40:50.278Z,8.58
2019-02-15T19:43:20.681Z,8.45
2019-02-15T19:45:52.977Z,8.30
2019-02-15T19:48:23.243Z,5.97
2019-02-15T19:50:53.370Z,8.68
2019-02-15T19:53:23.666Z,4.83
2019-02-15T19:55:53.909Z,6.78
2019-02-15T19:58:26.001Z,4.33
2019-02-15T20:00:56.198Z,6.10
2019-02-15T20:03:26.641Z,5.42
2019-02-15T20:05:57.401Z,5.22
2019-02-15T20:08:27.569Z,5.28
2019-02-15T20:10:57.752Z,2.58
2019-02-15T20:13:28.061Z,5.03
2019-02-15T20:15:58.366Z,3.70
2019-02-15T20:18:33.440Z,4.35
2019-02-15T20:21:04.011Z,6.35
2019-02-15T20:23:38.916Z,6.10
2019-02-15T20:26:11.382Z,5.37
2019-02-15T20:28:42.077Z,6.37
2019-02-15T20:31:12.293Z,4.60
2019-02-15T20:33:42.525Z,4.42
2019-02-15T20:36:12.613Z,4.40
2019-02-15T20:38:42.836Z,4.87
2019-02-15T20:41:13.111Z,5.80
2019-02-15T20:43:43.450Z,8.15
2019-02-15T20:46:13.712Z,4.28
2019-02-15T20:48:47.121Z,4.03
2019-02-15T20:51:21.427Z,3.25
2019-02-15T20:53:52.278Z,3.40
2019-02-15T20:56:22.499Z,1.75
2019-02-15T20:58:53.875Z,3.30
2019-02-15T21:01:24.087Z,2.80
2019-02-15T21:03:54.233Z,9.23
2019-02-15T21:06:25.541Z,2.15
2019-02-15T21:08:56.212Z,4.17
2019-02-15T21:11:26.352Z,3.92
2019-02-15T21:13:56.617Z,1.35
2019-02-15T21:16:27.016Z,1.50
2019-02-15T21:18:57.159Z,2.15
2019-02-15T21:21:27.443Z,2.08
2019-02-15T21:23:57.625Z,1.57
2019-02-15T21:26:28.300Z,3.50
2019-02-15T21:28:58.557Z,5.35
2019-02-15T21:31:30.688Z,3.33
2019-02-15T21:34:01.004Z,1.98
2019-02-15T21:36:31.203Z,4.67
2019-02-15T21:39:01.439Z,3.60
2019-02-15T21:41:33.307Z,3.60
2019-02-15T21:44:03.482Z,4.37
2019-02-15T21:46:34.017Z,1.95
2019-02-15T21:49:04.236Z,2.52
2019-02-15T21:51:34.407Z,2.80
2019-02-15T21:54:17.163Z,1.92
2019-02-15T21:56:47.527Z,3.50
2019-02-15T21:59:17.892Z,2.47
2019-02-15T22:01:49.278Z,3.92
2019-02-15T22:04:20.959Z,2.33
2019-02-15T22:06:51.242Z,2.27
2019-02-15T22:09:21.535Z,2.50
2019-02-15T22:11:52.012Z,3.30
2019-02-15T22:14:22.466Z,2.12
2019-02-15T22:16:52.729Z,1.77
2019-02-15T22:19:23.365Z,3.92
2019-02-15T22:21:53.902Z,2.40
2019-02-15T22:24:24.326Z,2.67
2019-02-15T22:26:56.100Z,2.80
2019-02-15T22:29:26.473Z,2.15
2019-02-15T22:31:57.268Z,2.52
2019-02-15T22:34:27.512Z,3.33
2019-02-15T22:36:57.812Z,3.60
2019-02-15T22:39:28.101Z,3.37
2019-02-15T22:41:58.303Z,2.98
2019-02-15T22:44:28.751Z,3.40
2019-02-15T22:46:59.028Z,2.72
2019-02-15T22:49:29.399Z,2.22
2019-02-15T22:51:59.695Z,2.65
2019-02-15T22:54:29.904Z,2.30
2019-02-15T22:57:00.110Z,2.72
2019-02-15T22:59:30.631Z,1.90
2019-02-15T23:02:01.045Z,3.27
2019-02-15T23:04:31.340Z,4.20
2019-02-15T23:07:01.633Z,2.22
2019-02-15T23:09:31.914Z,3.15
2019-02-15T23:12:02.292Z,3.83
2019-02-15T23:14:32.697Z,4.37
2019-02-15T23:17:02.952Z,2.58
2019-02-15T23:19:33.887Z,3.58
2019-02-15T23:22:04.125Z,1.35
2019-02-15T23:24:34.460Z,1.95
2019-02-15T23:27:04.695Z,1.55
2019-02-15T23:29:35.026Z,4.28
2019-02-15T23:32:05.215Z,2.72
2019-02-15T23:34:35.623Z,2.47
2019-02-15T23:37:06.260Z,3.98
2019-02-15T23:39:36.495Z,2.02
2019-02-15T23:42:07.030Z,4.08
2019-02-15T23:44:37.372Z,4.17
2019-02-15T23:47:07.659Z,2.05
2019-02-15T23:49:38.267Z,1.72
2019-02-15T23:52:09.355Z,3.22
2019-02-15T23:54:40.205Z,2.90
2019-02-15T23:57:11.083Z,2.67
2019-02-15T23:59:41.954Z,2.17
